createdAt,value
2023-02-02T00:01:27.058Z,18.55
2023-02-02T00:03:55.864Z,21.75
2023-02-02T00:06:26.691Z,22.37
2023-02-02T00:08:57.256Z,21.87
2023-02-02T00:11:27.048Z,22.00
2023-02-02T00:13:55.535Z,20.50
2023-02-02T00:16:44.009Z,22.42
2023-02-02T00:19:17.070Z,19.60
2023-02-02T00:21:46.057Z,20.87
2023-02-02T00:24:18.968Z,21.35
2023-02-02T00:26:49.886Z,20.30
2023-02-02T00:29:21.281Z,21.35
2023-02-02T00:31:51.990Z,22.23
2023-02-02T00:34:21.071Z,21.30
2023-02-02T00:36:50.506Z,19.85
2023-02-02T00:39:22.212Z,23.02
2023-02-02T00:41:50.702Z,22.17
2023-02-02T00:44:36.281Z,24.25
2023-02-02T00:47:06.423Z,19.88
2023-02-02T00:49:34.541Z,21.48
2023-02-02T00:52:02.940Z,24.30
2023-02-02T00:54:31.357Z,21.58
2023-02-02T00:56:59.484Z,18.35
2023-02-02T00:59:27.549Z,21.58
2023-02-02T01:01:55.650Z,21.48
2023-02-02T01:04:25.175Z,23.20
2023-02-02T01:06:53.227Z,22.38
2023-02-02T01:09:21.538Z,19.70
2023-02-02T01:11:49.587Z,21.58
2023-02-02T01:14:17.647Z,17.50
2023-02-02T01:16:45.727Z,21.35
2023-02-02T01:19:14.877Z,21.23
2023-02-02T01:21:44.506Z,22.83
2023-02-02T01:24:12.910Z,20.45
2023-02-02T01:26:41.029Z,20.13
2023-02-02T01:29:09.267Z,22.13
2023-02-02T01:31:37.382Z,18.77
2023-02-02T01:34:05.453Z,19.17
2023-02-02T01:36:33.513Z,19.85
2023-02-02T01:39:02.984Z,19.35
2023-02-02T01:41:31.387Z,21.23
2023-02-02T01:44:02.775Z,22.30
2023-02-02T01:46:34.773Z,21.95
2023-02-02T01:49:09.031Z,21.88
2023-02-02T01:51:55.862Z,21.55
2023-02-02T01:54:33.558Z,21.00
2023-02-02T01:57:09.754Z,22.40
2023-02-02T01:59:39.191Z,20.27
2023-02-02T02:02:08.400Z,22.10
2023-02-02T02:04:36.664Z,21.67
2023-02-02T02:07:07.234Z,19.85
2023-02-02T02:09:36.853Z,23.25
2023-02-02T02:12:13.319Z,17.08
2023-02-02T02:14:59.941Z,16.98
2023-02-02T02:17:50.050Z,25.80
2023-02-02T02:21:26.321Z,21.52
2023-02-02T02:25:13.941Z,20.13
2023-02-02T02:28:34.830Z,21.42
2023-02-02T02:31:55.946Z,23.65
2023-02-02T02:34:37.043Z,21.23
2023-02-02T02:37:12.955Z,22.58
2023-02-02T02:39:54.621Z,22.10
2023-02-02T02:42:28.031Z,21.05
2023-02-02T02:45:00.820Z,20.95
2023-02-02T02:47:32.510Z,22.50
2023-02-02T02:50:00.552Z,24.15
2023-02-02T02:52:28.650Z,22.98
2023-02-02T02:55:01.046Z,20.05
2023-02-02T02:57:45.745Z,22.53
2023-02-02T03:00:57.465Z,17.80
2023-02-02T03:03:47.994Z,17.65
2023-02-02T03:06:24.249Z,24.80
2023-02-02T03:09:01.875Z,18.73
2023-02-02T03:11:30.492Z,17.55
2023-02-02T03:13:58.795Z,25.52
2023-02-02T03:16:26.921Z,22.53
2023-02-02T03:18:57.901Z,19.63
2023-02-02T03:21:26.025Z,21.20
2023-02-02T03:23:54.070Z,19.38
2023-02-02T03:26:22.254Z,21.73
2023-02-02T03:28:51.240Z,22.85
2023-02-02T03:31:20.145Z,23.50
2023-02-02T03:33:48.370Z,18.90
2023-02-02T03:36:17.729Z,24.80
2023-02-02T03:38:45.765Z,25.63
2023-02-02T03:41:16.693Z,19.00
2023-02-02T03:43:44.742Z,26.92
2023-02-02T03:46:12.893Z,25.35
2023-02-02T03:48:41.006Z,22.15
2023-02-02T03:51:11.534Z,20.13
2023-02-02T03:53:44.260Z,22.38
2023-02-02T03:56:12.439Z,19.60
2023-02-02T03:58:40.523Z,21.23
2023-02-02T04:01:13.479Z,24.90
2023-02-02T04:03:41.608Z,23.50
2023-02-02T04:06:10.203Z,23.70
2023-02-02T04:08:39.384Z,21.85
2023-02-02T04:11:11.380Z,22.05
2023-02-02T04:13:40.759Z,25.05
2023-02-02T04:16:08.922Z,24.58
2023-02-02T04:18:38.790Z,25.88
2023-02-02T04:21:09.156Z,25.75
2023-02-02T04:23:37.292Z,22.40
2023-02-02T04:26:06.388Z,25.63
2023-02-02T04:28:36.161Z,22.15
2023-02-02T04:31:04.460Z,24.92
2023-02-02T04:33:32.481Z,24.17
2023-02-02T04:36:00.833Z,21.60
2023-02-02T04:38:28.877Z,21.87
2023-02-02T04:40:57.103Z,26.80
2023-02-02T04:43:25.335Z,22.67
2023-02-02T04:45:58.087Z,25.42
2023-02-02T04:48:26.246Z,23.63
2023-02-02T04:51:01.301Z,26.65
2023-02-02T04:53:31.214Z,24.20
2023-02-02T04:56:05.694Z,25.80
2023-02-02T04:58:33.847Z,31.63
2023-02-02T05:01:09.898Z,23.10
2023-02-02T05:03:38.323Z,27.13
2023-02-02T05:06:07.081Z,27.05
2023-02-02T05:08:35.922Z,25.77
2023-02-02T05:11:08.896Z,27.37
2023-02-02T05:13:37.301Z,28.58
2023-02-02T05:16:08.573Z,28.00
2023-02-02T05:18:36.665Z,30.75
2023-02-02T05:21:05.877Z,31.20
2023-02-02T05:23:34.718Z,26.08
2023-02-02T05:26:03.021Z,27.38
2023-02-02T05:28:32.173Z,26.58
2023-02-02T05:31:00.260Z,28.80
2023-02-02T05:33:29.639Z,29.65
2023-02-02T05:35:57.670Z,26.45
2023-02-02T05:38:25.793Z,26.77
2023-02-02T05:40:53.793Z,25.55
2023-02-02T05:43:21.849Z,30.30
2023-02-02T05:45:49.929Z,26.27
2023-02-02T05:48:17.991Z,28.90
2023-02-02T05:50:56.684Z,26.97
2023-02-02T05:53:25.695Z,26.07
2023-02-02T05:55:53.736Z,28.40
2023-02-02T05:58:21.747Z,28.55
2023-02-02T06:00:49.978Z,24.30
2023-02-02T06:03:18.423Z,24.20
2023-02-02T06:05:48.062Z,27.63
2023-02-02T06:08:16.167Z,31.90
2023-02-02T06:10:44.542Z,28.52
2023-02-02T06:13:12.949Z,23.50
2023-02-02T06:15:42.164Z,26.83
2023-02-02T06:18:10.492Z,27.30
2023-02-02T06:20:38.765Z,27.33
2023-02-02T06:23:08.481Z,26.58
2023-02-02T06:25:36.575Z,25.60
2023-02-02T06:28:05.041Z,25.83
2023-02-02T06:30:33.154Z,30.80
2023-02-02T06:33:01.765Z,26.95
2023-02-02T06:35:29.813Z,29.85
2023-02-02T06:37:59.287Z,26.05
2023-02-02T06:40:29.557Z,27.20
2023-02-02T06:42:58.674Z,32.85
2023-02-02T06:45:27.835Z,26.00
2023-02-02T06:48:00.600Z,26.95
2023-02-02T06:50:28.753Z,23.27
2023-02-02T06:52:56.898Z,32.22
2023-02-02T06:55:25.265Z,27.08
2023-02-02T06:57:59.296Z,25.13
2023-02-02T07:00:28.980Z,34.40
2023-02-02T07:02:57.603Z,28.15
2023-02-02T07:05:27.971Z,26.35
2023-02-02T07:07:57.686Z,25.48
2023-02-02T07:11:12.393Z,26.98
2023-02-02T07:13:15.463Z,22.77
2023-02-02T07:15:43.536Z,28.10
2023-02-02T07:18:11.587Z,29.27
2023-02-02T07:20:39.612Z,26.65
2023-02-02T07:23:07.679Z,25.58
2023-02-02T07:25:35.715Z,30.00
2023-02-02T07:28:03.768Z,23.73
2023-02-02T07:30:33.636Z,29.90
2023-02-02T07:33:01.869Z,23.33
2023-02-02T07:35:29.936Z,32.28
2023-02-02T07:37:57.973Z,20.83
2023-02-02T07:40:26.013Z,25.13
2023-02-02T07:42:54.051Z,29.70
2023-02-02T07:45:26.947Z,26.38
2023-02-02T07:48:01.501Z,28.43
2023-02-02T07:50:31.674Z,28.40
2023-02-02T07:53:00.674Z,26.02
2023-02-02T07:55:29.063Z,28.30
2023-02-02T07:57:58.943Z,31.55
2023-02-02T08:00:27.673Z,31.85
2023-02-02T08:02:56.027Z,25.85
2023-02-02T08:05:26.046Z,30.30
2023-02-02T08:07:54.262Z,34.10
2023-02-02T08:10:22.307Z,32.13
2023-02-02T08:12:50.368Z,27.80
2023-02-02T08:15:18.518Z,28.15
2023-02-02T08:17:49.878Z,26.42
2023-02-02T08:20:18.158Z,24.73
2023-02-02T08:22:47.543Z,26.40
2023-02-02T08:25:15.698Z,29.75
2023-02-02T08:27:43.710Z,30.48
2023-02-02T08:30:13.619Z,26.17
2023-02-02T08:32:41.646Z,28.08
2023-02-02T08:35:10.174Z,26.27
2023-02-02T08:37:38.240Z,27.52
2023-02-02T08:40:10.430Z,27.48
2023-02-02T08:42:38.491Z,27.23
2023-02-02T08:46:01.941Z,31.50
2023-02-02T08:48:10.805Z,26.33
2023-02-02T08:50:39.871Z,26.25
2023-02-02T08:53:07.913Z,27.48
2023-02-02T08:55:37.409Z,29.33
2023-02-02T08:58:05.477Z,31.08
2023-02-02T09:00:33.531Z,30.67
2023-02-02T09:03:01.566Z,27.08
2023-02-02T09:05:30.279Z,29.35
2023-02-02T09:07:58.489Z,30.40
2023-02-02T09:10:27.152Z,27.00
2023-02-02T09:12:56.543Z,26.30
2023-02-02T09:15:24.879Z,30.25
2023-02-02T09:17:53.976Z,30.15
2023-02-02T09:20:22.332Z,26.88
2023-02-02T09:22:50.909Z,28.60
2023-02-02T09:25:18.949Z,24.83
2023-02-02T09:27:46.989Z,25.75
2023-02-02T09:30:17.001Z,25.70
2023-02-02T09:32:45.547Z,26.27
2023-02-02T09:35:13.726Z,22.52
2023-02-02T09:37:41.825Z,24.08
2023-02-02T09:40:19.233Z,25.77
2023-02-02T09:43:04.040Z,26.17
2023-02-02T09:45:46.227Z,25.63
2023-02-02T09:48:29.611Z,20.73
2023-02-02T09:51:04.258Z,25.25
2023-02-02T09:53:54.646Z,19.15
2023-02-02T09:56:28.479Z,22.00
2023-02-02T09:59:18.842Z,20.10
2023-02-02T10:01:53.808Z,16.52
2023-02-02T10:04:28.365Z,19.55
2023-02-02T10:07:01.903Z,22.73
2023-02-02T10:09:40.823Z,21.65
2023-02-02T10:12:30.721Z,18.63
2023-02-02T10:15:12.926Z,18.83
2023-02-02T10:17:50.629Z,17.98
2023-02-02T10:20:34.506Z,18.38
2023-02-02T10:23:16.571Z,19.45
2023-02-02T10:25:56.177Z,18.27
2023-02-02T10:28:43.121Z,18.95
2023-02-02T10:31:29.399Z,18.00
2023-02-02T10:34:16.533Z,18.27
2023-02-02T10:37:18.373Z,15.45
2023-02-02T10:40:05.117Z,16.02
2023-02-02T10:43:06.450Z,18.52
2023-02-02T10:45:36.917Z,16.20
2023-02-02T10:48:15.183Z,15.70
2023-02-02T10:50:50.567Z,19.52
2023-02-02T10:53:19.027Z,15.82
2023-02-02T10:55:56.852Z,17.60
2023-02-02T10:58:33.202Z,19.83
2023-02-02T11:01:03.601Z,16.92
2023-02-02T11:03:34.289Z,16.15
2023-02-02T11:06:26.660Z,14.77
2023-02-02T11:08:59.525Z,15.45
2023-02-02T11:11:33.521Z,16.50
2023-02-02T11:14:13.752Z,17.02
2023-02-02T11:16:45.269Z,20.30
2023-02-02T11:19:28.687Z,16.85
2023-02-02T11:22:00.776Z,19.92
2023-02-02T11:24:35.965Z,19.05
2023-02-02T11:27:13.515Z,14.57
2023-02-02T11:29:47.314Z,18.33
2023-02-02T11:32:26.543Z,17.45
2023-02-02T11:35:18.668Z,18.85
2023-02-02T11:38:02.415Z,19.13
2023-02-02T11:40:36.341Z,18.93
2023-02-02T11:43:16.248Z,17.55
2023-02-02T11:45:49.414Z,19.67
2023-02-02T11:48:21.281Z,17.67
2023-02-02T11:50:53.563Z,18.67
2023-02-02T11:53:29.466Z,16.00
2023-02-02T11:56:03.082Z,18.98
2023-02-02T11:58:44.708Z,21.20
2023-02-02T12:01:28.632Z,18.60
2023-02-02T12:03:59.364Z,18.75
2023-02-02T12:06:36.733Z,16.48
2023-02-02T12:09:17.996Z,16.77
2023-02-02T12:12:03.210Z,19.23
2023-02-02T12:14:46.869Z,16.33
2023-02-02T12:17:38.714Z,18.25
2023-02-02T12:20:33.323Z,18.95
2023-02-02T12:23:36.352Z,16.50
2023-02-02T12:26:24.088Z,17.85
2023-02-02T12:29:38.510Z,13.18
2023-02-02T12:32:24.672Z,16.05
2023-02-02T12:35:15.926Z,17.23
2023-02-02T12:38:01.478Z,14.25
2023-02-02T12:40:57.595Z,19.38
2023-02-02T12:43:40.823Z,13.38
2023-02-02T12:46:26.823Z,16.50
2023-02-02T12:49:22.302Z,17.17
2023-02-02T12:52:34.471Z,16.23
2023-02-02T12:55:21.295Z,18.23
2023-02-02T12:58:07.364Z,16.52
2023-02-02T13:01:06.508Z,14.15
2023-02-02T13:04:01.487Z,14.65
2023-02-02T13:07:08.197Z,20.38
2023-02-02T13:09:47.194Z,15.30
2023-02-02T13:12:19.601Z,18.42
2023-02-02T13:14:53.548Z,18.70
2023-02-02T13:17:31.283Z,19.95
2023-02-02T13:20:04.500Z,18.08
2023-02-02T13:22:38.932Z,20.75
2023-02-02T13:25:17.878Z,16.92
2023-02-02T13:27:49.620Z,17.30
2023-02-02T13:30:30.481Z,19.17
2023-02-02T13:33:08.535Z,19.27
2023-02-02T13:35:47.511Z,18.17
2023-02-02T13:38:22.484Z,18.48
2023-02-02T13:40:52.670Z,19.05
2023-02-02T13:43:40.145Z,18.25
2023-02-02T13:46:24.902Z,16.20
2023-02-02T13:49:06.339Z,19.85
2023-02-02T13:52:00.810Z,20.15
2023-02-02T13:55:28.954Z,20.10
2023-02-02T13:58:35.816Z,18.15
2023-02-02T14:01:08.738Z,16.30
2023-02-02T14:03:40.961Z,21.63
2023-02-02T14:06:16.858Z,19.95
2023-02-02T14:08:50.111Z,20.45
2023-02-02T14:11:25.267Z,19.13
2023-02-02T14:14:16.459Z,20.30
2023-02-02T14:16:51.067Z,15.43
2023-02-02T14:20:02.437Z,17.98
2023-02-02T14:22:45.676Z,18.73
2023-02-02T14:25:53.208Z,18.52
2023-02-02T14:28:45.099Z,18.05
2023-02-02T14:31:54.698Z,19.00
2023-02-02T14:34:35.932Z,21.40
2023-02-02T14:37:45.003Z,18.95
2023-02-02T14:40:33.284Z,18.23
2023-02-02T14:43:37.373Z,20.15
2023-02-02T14:46:39.307Z,20.63
2023-02-02T14:49:25.607Z,19.33
2023-02-02T14:52:02.830Z,19.40
2023-02-02T14:54:41.263Z,16.95
2023-02-02T14:57:28.189Z,17.63
2023-02-02T15:00:01.201Z,17.90
2023-02-02T15:02:35.779Z,16.73
2023-02-02T15:05:40.268Z,16.83
2023-02-02T15:08:21.671Z,18.27
2023-02-02T15:11:30.316Z,15.60
2023-02-02T15:14:14.563Z,17.48
2023-02-02T15:16:44.016Z,15.67
2023-02-02T15:19:32.244Z,18.15
2023-02-02T15:22:16.972Z,19.90
2023-02-02T15:24:47.641Z,15.55
2023-02-02T15:27:20.404Z,16.08
2023-02-02T15:29:57.047Z,16.83
2023-02-02T15:32:28.380Z,18.33
2023-02-02T15:35:02.557Z,14.57
2023-02-02T15:37:40.260Z,22.03
2023-02-02T15:40:15.778Z,28.03
2023-02-02T15:42:56.089Z,22.85
2023-02-02T15:45:35.656Z,19.73
2023-02-02T15:48:14.687Z,17.50
2023-02-02T15:50:47.269Z,15.57
2023-02-02T15:53:22.152Z,16.13
2023-02-02T15:55:51.004Z,18.83
2023-02-02T15:58:32.125Z,15.57
2023-02-02T16:01:04.681Z,23.77
2023-02-02T16:03:44.542Z,20.40
2023-02-02T16:06:13.300Z,19.27
2023-02-02T16:08:42.695Z,14.10
2023-02-02T16:11:15.549Z,18.40
2023-02-02T16:13:59.216Z,14.90
2023-02-02T16:16:29.924Z,17.70
2023-02-02T16:19:15.097Z,17.20
2023-02-02T16:21:49.961Z,18.10
2023-02-02T16:24:24.971Z,16.80
2023-02-02T16:26:56.532Z,19.17
2023-02-02T16:29:28.156Z,21.63
2023-02-02T16:31:58.218Z,22.55
2023-02-02T16:34:47.039Z,20.52
2023-02-02T16:37:22.411Z,25.40
2023-02-02T16:39:50.798Z,18.80
2023-02-02T16:42:27.413Z,21.52
2023-02-02T16:44:59.274Z,16.13
2023-02-02T16:47:39.845Z,20.83
2023-02-02T16:50:30.604Z,17.23
2023-02-02T16:53:06.107Z,17.47
2023-02-02T16:55:49.874Z,17.83
2023-02-02T16:58:23.131Z,16.80
2023-02-02T17:01:14.879Z,23.88
2023-02-02T17:03:54.985Z,33.38
2023-02-02T17:06:45.512Z,40.13
2023-02-02T17:09:34.770Z,39.33
2023-02-02T17:12:14.249Z,24.65
2023-02-02T17:14:54.113Z,41.50
2023-02-02T17:17:24.419Z,30.47
2023-02-02T17:19:52.603Z,21.27
2023-02-02T17:22:25.946Z,19.75
2023-02-02T17:24:55.681Z,28.33
2023-02-02T17:27:31.130Z,23.55
2023-02-02T17:30:03.099Z,31.35
2023-02-02T17:32:32.503Z,23.08
2023-02-02T17:35:00.547Z,17.80
2023-02-02T17:37:28.608Z,19.40
2023-02-02T17:39:56.668Z,21.63
2023-02-02T17:42:30.565Z,20.92
2023-02-02T17:44:58.597Z,17.00
2023-02-02T17:47:26.672Z,16.63
2023-02-02T17:49:56.066Z,16.58
2023-02-02T17:52:24.311Z,18.00
2023-02-02T17:54:52.345Z,15.25
2023-02-02T17:57:20.497Z,19.00
2023-02-02T17:59:48.600Z,16.52
2023-02-02T18:02:17.696Z,15.43
2023-02-02T18:04:45.957Z,19.75
2023-02-02T18:07:15.375Z,15.65
2023-02-02T18:09:43.456Z,20.63
2023-02-02T18:12:11.806Z,17.33
2023-02-02T18:14:40.017Z,17.20
2023-02-02T18:17:09.008Z,19.92
2023-02-02T18:19:39.131Z,20.15
2023-02-02T18:22:07.373Z,19.92
2023-02-02T18:24:36.763Z,17.85
2023-02-02T18:27:05.046Z,20.73
2023-02-02T18:29:33.411Z,21.73
2023-02-02T18:32:01.886Z,15.20
2023-02-02T18:34:32.350Z,15.68
2023-02-02T18:37:01.028Z,13.27
2023-02-02T18:39:29.306Z,15.68
2023-02-02T18:41:59.948Z,11.57
2023-02-02T18:44:28.034Z,19.23
2023-02-02T18:46:56.218Z,15.13
2023-02-02T18:49:25.546Z,16.85
2023-02-02T18:51:53.645Z,27.10
2023-02-02T18:54:22.270Z,14.45
2023-02-02T18:56:50.435Z,24.50
2023-02-02T18:59:19.850Z,16.80
2023-02-02T19:01:48.060Z,14.43
2023-02-02T19:04:16.233Z,17.85
2023-02-02T19:07:01.747Z,18.05
2023-02-02T19:09:29.863Z,17.40
2023-02-02T19:11:58.516Z,18.85
2023-02-02T19:14:34.420Z,21.70
2023-02-02T19:17:18.881Z,18.90
2023-02-02T19:19:46.932Z,13.93
2023-02-02T19:22:21.623Z,20.25
2023-02-02T19:24:50.858Z,23.13
2023-02-02T19:27:22.694Z,16.33
2023-02-02T19:29:59.764Z,17.50
2023-02-02T19:32:33.613Z,16.02
2023-02-02T19:35:02.640Z,17.50
2023-02-02T19:37:33.739Z,13.97
2023-02-02T19:40:19.979Z,16.80
2023-02-02T19:42:57.102Z,13.33
2023-02-02T19:45:32.019Z,18.35
2023-02-02T19:48:03.580Z,14.40
2023-02-02T19:50:40.893Z,17.52
2023-02-02T19:53:17.369Z,16.75
2023-02-02T19:55:45.824Z,12.60
2023-02-02T19:58:20.484Z,14.85
2023-02-02T20:00:52.484Z,28.42
2023-02-02T20:03:24.728Z,16.25
2023-02-02T20:05:56.293Z,12.77
2023-02-02T20:08:30.311Z,12.68
2023-02-02T20:11:07.298Z,12.18
2023-02-02T20:13:43.588Z,10.82
2023-02-02T20:16:19.078Z,12.48
2023-02-02T20:18:53.600Z,12.15
2023-02-02T20:21:34.487Z,12.10
2023-02-02T20:24:02.851Z,11.88
2023-02-02T20:26:37.510Z,10.57
2023-02-02T20:29:22.312Z,9.75
2023-02-02T20:31:54.622Z,9.80
2023-02-02T20:34:28.811Z,10.43
2023-02-02T20:37:03.588Z,10.47
2023-02-02T20:39:36.336Z,8.60
2023-02-02T20:42:05.445Z,11.63
2023-02-02T20:44:36.027Z,8.50
2023-02-02T20:47:07.803Z,9.70
2023-02-02T20:49:37.627Z,10.18
2023-02-02T20:52:10.924Z,10.55
2023-02-02T20:54:40.381Z,8.95
2023-02-02T20:57:08.407Z,11.00
2023-02-02T20:59:36.632Z,9.77
2023-02-02T21:02:06.507Z,9.90
2023-02-02T21:04:34.937Z,9.48
2023-02-02T21:07:03.025Z,10.30
2023-02-02T21:09:31.305Z,10.10
2023-02-02T21:11:59.389Z,9.52
2023-02-02T21:14:27.518Z,10.52
2023-02-02T21:17:12.684Z,8.98
2023-02-02T21:19:44.105Z,10.05
2023-02-02T21:22:13.083Z,8.02
2023-02-02T21:24:41.277Z,9.02
2023-02-02T21:27:09.893Z,10.60
2023-02-02T21:29:38.402Z,9.43
2023-02-02T21:32:07.531Z,8.68
2023-02-02T21:34:37.604Z,9.35
2023-02-02T21:37:14.971Z,7.88
2023-02-02T21:39:48.440Z,8.63
2023-02-02T21:42:19.512Z,8.95
2023-02-02T21:44:53.590Z,11.68
2023-02-02T21:47:30.091Z,20.92
2023-02-02T21:50:04.606Z,18.48
2023-02-02T21:52:35.208Z,10.20
2023-02-02T21:55:33.512Z,11.40
2023-02-02T21:58:15.293Z,14.07
2023-02-02T22:00:43.692Z,15.50
2023-02-02T22:03:37.849Z,20.20
2023-02-02T22:06:35.904Z,22.80
2023-02-02T22:09:19.375Z,23.25
2023-02-02T22:11:52.513Z,27.08
2023-02-02T22:14:26.580Z,41.63
2023-02-02T22:16:59.037Z,29.15
2023-02-02T22:19:34.322Z,52.17
2023-02-02T22:22:17.645Z,30.85
2023-02-02T22:24:59.316Z,28.48
2023-02-02T22:27:40.903Z,22.77
2023-02-02T22:30:23.615Z,11.57
2023-02-02T22:32:51.755Z,11.45
2023-02-02T22:35:20.014Z,12.00
2023-02-02T22:37:48.439Z,11.95
2023-02-02T22:40:22.250Z,11.43
2023-02-02T22:42:50.748Z,12.17
2023-02-02T22:45:19.140Z,11.90
2023-02-02T22:47:47.773Z,12.82
2023-02-02T22:50:16.155Z,13.40
2023-02-02T22:52:44.586Z,13.90
2023-02-02T22:55:14.420Z,13.38
2023-02-02T22:57:43.884Z,14.77
2023-02-02T23:00:16.036Z,14.63
2023-02-02T23:02:44.756Z,16.20
2023-02-02T23:05:15.398Z,14.80
2023-02-02T23:07:45.085Z,15.63
2023-02-02T23:10:15.221Z,16.67
2023-02-02T23:12:45.118Z,16.48
2023-02-02T23:15:14.416Z,18.48
2023-02-02T23:17:42.884Z,19.80
2023-02-02T23:20:15.791Z,20.42
2023-02-02T23:22:44.218Z,23.05
2023-02-02T23:25:13.467Z,26.88
2023-02-02T23:27:41.895Z,21.77
2023-02-02T23:30:14.743Z,26.50
2023-02-02T23:32:43.367Z,25.15
2023-02-02T23:35:11.810Z,25.08
2023-02-02T23:37:40.172Z,23.52
2023-02-02T23:40:10.258Z,23.73
2023-02-02T23:42:38.508Z,23.20
2023-02-02T23:45:07.532Z,24.05
2023-02-02T23:47:37.135Z,23.10
2023-02-02T23:50:09.049Z,27.65
2023-02-02T23:52:38.254Z,26.50
2023-02-02T23:55:08.264Z,27.48
2023-02-02T23:57:37.101Z,31.73
